Seven Sins — ZCOD6 — position and weather

sailwx.info

Track history (hours):
 
Tides and Currents Weather Stations Pressure Air Temp Water Temp Dewpoint Dewpoint Depression Visibility Wind Speed Wind Dir Waves Ship Positions

Seven Sins

Last reported at 2014-Oct-21 18:12 UTC. Time now 2014-Oct-23 01:38 UTC.
Position N 43°33' E 007°01'.

Length 43 m; draft 3.1 m.

Type: Pleasure craft. MMSI: 319425000.

Date/timePositionNaut miles runAvg speedWind from/ knotsBaromVisibWave heightAir tempDewpointWater temp
2014-Oct-21 18:12N 43°33' E 007°01'0 0.0
2014-Oct-21 11:21N 43°33' E 007°01'3 4.2
2014-Oct-21 10:33N 43°32' E 007°05'1111.0
2014-Oct-21 09:31N 43°39' E 007°18'3 2.7
2014-Oct-21 08:22N 43°41' E 007°20'0 0.0
2014-Oct-21 07:22N 43°41' E 007°20'0 0.0
2014-Oct-21 06:28N 43°41' E 007°20'0 0.0
2014-Oct-21 05:28N 43°41' E 007°20'0 0.0
2014-Oct-21 04:28N 43°41' E 007°20'0 0.0
2014-Oct-21 03:28N 43°41' E 007°20'0 0.0
2014-Oct-21 02:28N 43°41' E 007°20'0 0.0
2014-Oct-21 01:28N 43°41' E 007°20'0 0.0
2014-Oct-21 00:22N 43°41' E 007°20'1 1.8
2014-Oct-20 23:33N 43°41' E 007°22'48 1.1
2014-Oct-19 02:28N 43°06' E 008°09'9 9.9
2014-Oct-19 01:33N 43°10' E 007°57'39 9.7
2014-Oct-18 21:33N 43°27' E 007°09'8 8.2
2014-Oct-18 20:34N 43°32' E 007°02'0 0.1
2014-Oct-18 18:24N 43°32' E 007°01'0 0.0
2014-Oct-18 17:06N 43°32' E 007°01'0 0.0
2014-Oct-18 16:30N 43°32' E 007°01'0 0.0
2014-Oct-18 15:24N 43°32' E 007°01'0 0.0
2014-Oct-18 14:30N 43°32' E 007°01'0 0.0
2014-Oct-18 13:12N 43°32' E 007°01'0 0.0
2014-Oct-18 12:30N 43°32' E 007°01'0 0.0
2014-Oct-18 11:24N 43°32' E 007°01'0 0.0
2014-Oct-18 10:27N 43°32' E 007°01'3 3.8
2014-Oct-18 09:33N 43°31' E 007°05'4 3.9
2014-Oct-18 08:28N 43°35' E 007°08'0 0.0
2014-Oct-18 07:28N 43°35' E 007°08'0 0.0
2014-Oct-18 06:22N 43°35' E 007°08'0 0.0
2014-Oct-18 05:28N 43°35' E 007°08'0 0.0
2014-Oct-18 04:28N 43°35' E 007°08'0 0.0
2014-Oct-18 03:28N 43°35' E 007°08'0 0.0
2014-Oct-18 02:28N 43°35' E 007°08'0 0.0
2014-Oct-18 01:28N 43°35' E 007°08'0 0.0
2014-Oct-18 00:28N 43°35' E 007°08'0 0.0
2014-Oct-17 23:28N 43°35' E 007°08'0 0.0
2014-Oct-17 22:28N 43°35' E 007°08'0 0.0
2014-Oct-17 21:28N 43°35' E 007°08'0 0.0
2014-Oct-17 20:28N 43°35' E 007°08'0 0.0
2014-Oct-17 19:28N 43°35' E 007°08'0 0.0
2014-Oct-17 18:28N 43°35' E 007°08'0 0.0
2014-Oct-17 17:28N 43°35' E 007°08'0 0.0
2014-Oct-17 16:28N 43°35' E 007°08'0 0.0
2014-Oct-17 15:28N 43°35' E 007°08'0 0.0
2014-Oct-17 13:28N 43°35' E 007°08'0 0.0
2014-Oct-17 12:28N 43°35' E 007°08'0 0.0
2014-Oct-17 11:32N 43°35' E 007°08'5 5.0
2014-Oct-17 10:33N 43°39' E 007°11'0 0.0
2014-Oct-17 09:33N 43°39' E 007°11'2 2.0
2014-Oct-17 08:33N 43°38' E 007°09'9 8.3
2014-Oct-17 07:31N 43°30' E 007°04'5 2.5
2014-Oct-17 05:31N 43°31' E 006°57'0 0.0
2014-Oct-17 04:25N 43°31' E 006°57'0 0.0
2014-Oct-16 22:25N 43°31' E 006°57'0 0.0
2014-Oct-16 19:25N 43°31' E 006°57'0 0.0
2014-Oct-16 13:19N 43°31' E 006°57'4 1.2
2014-Oct-16 10:18N 43°32' E 007°01'0 0.3
2014-Oct-16 09:06N 43°33' E 007°01'0 0.0
2014-Oct-16 08:33N 43°33' E 007°01'0 0.0
2014-Oct-16 07:34N 43°33' E 007°01'0 0.0
2014-Oct-16 06:34N 43°33' E 007°01'0 0.0
2014-Oct-16 05:33N 43°33' E 007°01'0 0.0
2014-Oct-16 04:33N 43°33' E 007°01'0 0.0
2014-Oct-16 03:33N 43°33' E 007°01'0 0.0
2014-Oct-16 02:33N 43°33' E 007°01'0 0.0
2014-Oct-16 01:33N 43°33' E 007°01'0 0.0
2014-Oct-16 00:32N 43°33' E 007°01'0 0.0
2014-Oct-15 23:33N 43°33' E 007°01'0 0.0
2014-Oct-15 22:33N 43°33' E 007°01'0 0.0
2014-Oct-15 21:33N 43°33' E 007°01'0 0.0
2014-Oct-15 20:33N 43°33' E 007°01'0 0.0
2014-Oct-15 19:34N 43°33' E 007°01'0 0.0
2014-Oct-15 18:33N 43°33' E 007°01'0 0.0
2014-Oct-15 17:33N 43°33' E 007°01'0 0.0
2014-Oct-15 16:33N 43°33' E 007°01'0 0.0
2014-Oct-15 15:33N 43°33' E 007°01'0 0.0
2014-Oct-15 14:34N 43°33' E 007°01'0 0.0
2014-Oct-15 13:33N 43°33' E 007°01'0 0.0
2014-Oct-15 12:33N 43°33' E 007°01'0 0.0
2014-Oct-15 11:33N 43°33' E 007°01'0 0.0
2014-Oct-15 10:34N 43°33' E 007°01'0 0.0
2014-Oct-15 09:33N 43°33' E 007°01'0 0.0
2014-Oct-15 08:33N 43°33' E 007°01'0 0.0
2014-Oct-15 07:33N 43°33' E 007°01'0 0.0
2014-Oct-15 06:33N 43°33' E 007°01'0 0.0
2014-Oct-15 05:33N 43°33' E 007°01'0 0.0
2014-Oct-15 04:33N 43°33' E 007°01'0 0.0
2014-Oct-15 03:33N 43°33' E 007°01'0 0.0
2014-Oct-15 02:33N 43°33' E 007°01'0 0.0
2014-Oct-15 01:33N 43°33' E 007°01'0 0.0
2014-Oct-15 00:33N 43°33' E 007°01'0 0.0
2014-Oct-14 23:33N 43°33' E 007°01'0 0.0
2014-Oct-14 22:33N 43°33' E 007°01'0 0.0
2014-Oct-14 21:33N 43°33' E 007°01'0 0.0
2014-Oct-14 20:33N 43°33' E 007°01'0 0.0
2014-Oct-14 19:33N 43°33' E 007°01'0 0.0
2014-Oct-14 18:33N 43°33' E 007°01'0 0.0
2014-Oct-14 17:33N 43°33' E 007°01'0 0.0
2014-Oct-14 16:33N 43°33' E 007°01'0 0.0
2014-Oct-14 15:33N 43°33' E 007°01'0 0.0
2014-Oct-14 14:33N 43°33' E 007°01'0 0.0
2014-Oct-14 13:33N 43°33' E 007°01'0 0.0
2014-Oct-14 12:34N 43°33' E 007°01'0 0.0
2014-Oct-14 11:33N 43°33' E 007°01'0 0.0
2014-Oct-14 10:33N 43°33' E 007°01'0 0.0
2014-Oct-14 09:33N 43°33' E 007°01'0 0.0
2014-Oct-14 08:33N 43°33' E 007°01'0 0.0
2014-Oct-14 07:33N 43°33' E 007°01'0 0.0
2014-Oct-14 06:33N 43°33' E 007°01'0 0.0
2014-Oct-14 05:34N 43°33' E 007°01'0 0.0
2014-Oct-14 04:33N 43°33' E 007°01'0 0.0
2014-Oct-14 03:33N 43°33' E 007°01'0 0.0
2014-Oct-14 02:33N 43°33' E 007°01'0 0.0
2014-Oct-14 01:33N 43°33' E 007°01'0 0.0
2014-Oct-14 00:33N 43°33' E 007°01'0 0.0
2014-Oct-13 23:33N 43°33' E 007°01'0 0.0
2014-Oct-13 22:33N 43°33' E 007°01'0 0.0
2014-Oct-13 21:33N 43°33' E 007°01'0 0.0
2014-Oct-13 20:33N 43°33' E 007°01'0 0.0
2014-Oct-13 19:34N 43°33' E 007°01'0 0.0
2014-Oct-13 18:33N 43°33' E 007°01'0 0.0
2014-Oct-13 17:33N 43°33' E 007°01'0 0.0
2014-Oct-13 16:33N 43°33' E 007°01'1 1.0
2014-Oct-13 15:33N 43°32' E 007°01'6 5.8
2014-Oct-13 14:33N 43°33' E 007°09'18 3.5
2014-Oct-13 09:23N 43°45' E 007°27'  
Track history (hours):
 
Tides and Currents Weather Stations Pressure Air Temp Water Temp Dewpoint Dewpoint Depression Visibility Wind Speed Wind Dir Waves Ship Positions

Seven Sins

Last reported at 2014-Oct-21 18:12 UTC. Time now 2014-Oct-23 01:38 UTC.
Position N 43°33' E 007°01'.

Length 43 m; draft 3.1 m.

Type: Pleasure craft. MMSI: 319425000.

Date/timePositionNaut miles runAvg speedWind from/ knotsBaromVisibWave heightAir tempDewpointWater temp
2014-Oct-21 18:12N 43°33' E 007°01'0 0.0
2014-Oct-21 11:21N 43°33' E 007°01'3 4.2
2014-Oct-21 10:33N 43°32' E 007°05'1111.0
2014-Oct-21 09:31N 43°39' E 007°18'3 2.7
2014-Oct-21 08:22N 43°41' E 007°20'0 0.0
2014-Oct-21 07:22N 43°41' E 007°20'0 0.0
2014-Oct-21 06:28N 43°41' E 007°20'0 0.0
2014-Oct-21 05:28N 43°41' E 007°20'0 0.0
2014-Oct-21 04:28N 43°41' E 007°20'0 0.0
2014-Oct-21 03:28N 43°41' E 007°20'0 0.0
2014-Oct-21 02:28N 43°41' E 007°20'0 0.0
2014-Oct-21 01:28N 43°41' E 007°20'0 0.0
2014-Oct-21 00:22N 43°41' E 007°20'1 1.8
2014-Oct-20 23:33N 43°41' E 007°22'48 1.1
2014-Oct-19 02:28N 43°06' E 008°09'9 9.9
2014-Oct-19 01:33N 43°10' E 007°57'39 9.7
2014-Oct-18 21:33N 43°27' E 007°09'8 8.2
2014-Oct-18 20:34N 43°32' E 007°02'0 0.1
2014-Oct-18 18:24N 43°32' E 007°01'0 0.0
2014-Oct-18 17:06N 43°32' E 007°01'0 0.0
2014-Oct-18 16:30N 43°32' E 007°01'0 0.0
2014-Oct-18 15:24N 43°32' E 007°01'0 0.0
2014-Oct-18 14:30N 43°32' E 007°01'0 0.0
2014-Oct-18 13:12N 43°32' E 007°01'0 0.0
2014-Oct-18 12:30N 43°32' E 007°01'0 0.0
2014-Oct-18 11:24N 43°32' E 007°01'0 0.0
2014-Oct-18 10:27N 43°32' E 007°01'3 3.8
2014-Oct-18 09:33N 43°31' E 007°05'4 3.9
2014-Oct-18 08:28N 43°35' E 007°08'0 0.0
2014-Oct-18 07:28N 43°35' E 007°08'0 0.0
2014-Oct-18 06:22N 43°35' E 007°08'0 0.0
2014-Oct-18 05:28N 43°35' E 007°08'0 0.0
2014-Oct-18 04:28N 43°35' E 007°08'0 0.0
2014-Oct-18 03:28N 43°35' E 007°08'0 0.0
2014-Oct-18 02:28N 43°35' E 007°08'0 0.0
2014-Oct-18 01:28N 43°35' E 007°08'0 0.0
2014-Oct-18 00:28N 43°35' E 007°08'0 0.0
2014-Oct-17 23:28N 43°35' E 007°08'0 0.0
2014-Oct-17 22:28N 43°35' E 007°08'0 0.0
2014-Oct-17 21:28N 43°35' E 007°08'0 0.0
2014-Oct-17 20:28N 43°35' E 007°08'0 0.0
2014-Oct-17 19:28N 43°35' E 007°08'0 0.0
2014-Oct-17 18:28N 43°35' E 007°08'0 0.0
2014-Oct-17 17:28N 43°35' E 007°08'0 0.0
2014-Oct-17 16:28N 43°35' E 007°08'0 0.0
2014-Oct-17 15:28N 43°35' E 007°08'0 0.0
2014-Oct-17 13:28N 43°35' E 007°08'0 0.0
2014-Oct-17 12:28N 43°35' E 007°08'0 0.0
2014-Oct-17 11:32N 43°35' E 007°08'5 5.0
2014-Oct-17 10:33N 43°39' E 007°11'0 0.0
2014-Oct-17 09:33N 43°39' E 007°11'2 2.0
2014-Oct-17 08:33N 43°38' E 007°09'9 8.3
2014-Oct-17 07:31N 43°30' E 007°04'5 2.5
2014-Oct-17 05:31N 43°31' E 006°57'0 0.0
2014-Oct-17 04:25N 43°31' E 006°57'0 0.0
2014-Oct-16 22:25N 43°31' E 006°57'0 0.0
2014-Oct-16 19:25N 43°31' E 006°57'0 0.0
2014-Oct-16 13:19N 43°31' E 006°57'4 1.2
2014-Oct-16 10:18N 43°32' E 007°01'0 0.3
2014-Oct-16 09:06N 43°33' E 007°01'0 0.0
2014-Oct-16 08:33N 43°33' E 007°01'0 0.0
2014-Oct-16 07:34N 43°33' E 007°01'0 0.0
2014-Oct-16 06:34N 43°33' E 007°01'0 0.0
2014-Oct-16 05:33N 43°33' E 007°01'0 0.0
2014-Oct-16 04:33N 43°33' E 007°01'0 0.0
2014-Oct-16 03:33N 43°33' E 007°01'0 0.0
2014-Oct-16 02:33N 43°33' E 007°01'0 0.0
2014-Oct-16 01:33N 43°33' E 007°01'0 0.0
2014-Oct-16 00:32N 43°33' E 007°01'0 0.0
2014-Oct-15 23:33N 43°33' E 007°01'0 0.0
2014-Oct-15 22:33N 43°33' E 007°01'0 0.0
2014-Oct-15 21:33N 43°33' E 007°01'0 0.0
2014-Oct-15 20:33N 43°33' E 007°01'0 0.0
2014-Oct-15 19:34N 43°33' E 007°01'0 0.0
2014-Oct-15 18:33N 43°33' E 007°01'0 0.0
2014-Oct-15 17:33N 43°33' E 007°01'0 0.0
2014-Oct-15 16:33N 43°33' E 007°01'0 0.0
2014-Oct-15 15:33N 43°33' E 007°01'0 0.0
2014-Oct-15 14:34N 43°33' E 007°01'0 0.0
2014-Oct-15 13:33N 43°33' E 007°01'0 0.0
2014-Oct-15 12:33N 43°33' E 007°01'0 0.0
2014-Oct-15 11:33N 43°33' E 007°01'0 0.0
2014-Oct-15 10:34N 43°33' E 007°01'0 0.0
2014-Oct-15 09:33N 43°33' E 007°01'0 0.0
2014-Oct-15 08:33N 43°33' E 007°01'0 0.0
2014-Oct-15 07:33N 43°33' E 007°01'0 0.0
2014-Oct-15 06:33N 43°33' E 007°01'0 0.0
2014-Oct-15 05:33N 43°33' E 007°01'0 0.0
2014-Oct-15 04:33N 43°33' E 007°01'0 0.0
2014-Oct-15 03:33N 43°33' E 007°01'0 0.0
2014-Oct-15 02:33N 43°33' E 007°01'0 0.0
2014-Oct-15 01:33N 43°33' E 007°01'0 0.0
2014-Oct-15 00:33N 43°33' E 007°01'0 0.0
2014-Oct-14 23:33N 43°33' E 007°01'0 0.0
2014-Oct-14 22:33N 43°33' E 007°01'0 0.0
2014-Oct-14 21:33N 43°33' E 007°01'0 0.0
2014-Oct-14 20:33N 43°33' E 007°01'0 0.0
2014-Oct-14 19:33N 43°33' E 007°01'0 0.0
2014-Oct-14 18:33N 43°33' E 007°01'0 0.0
2014-Oct-14 17:33N 43°33' E 007°01'0 0.0
2014-Oct-14 16:33N 43°33' E 007°01'0 0.0
2014-Oct-14 15:33N 43°33' E 007°01'0 0.0
2014-Oct-14 14:33N 43°33' E 007°01'0 0.0
2014-Oct-14 13:33N 43°33' E 007°01'0 0.0
2014-Oct-14 12:34N 43°33' E 007°01'0 0.0
2014-Oct-14 11:33N 43°33' E 007°01'0 0.0
2014-Oct-14 10:33N 43°33' E 007°01'0 0.0
2014-Oct-14 09:33N 43°33' E 007°01'0 0.0
2014-Oct-14 08:33N 43°33' E 007°01'0 0.0
2014-Oct-14 07:33N 43°33' E 007°01'0 0.0
2014-Oct-14 06:33N 43°33' E 007°01'0 0.0
2014-Oct-14 05:34N 43°33' E 007°01'0 0.0
2014-Oct-14 04:33N 43°33' E 007°01'0 0.0
2014-Oct-14 03:33N 43°33' E 007°01'0 0.0
2014-Oct-14 02:33N 43°33' E 007°01'0 0.0
2014-Oct-14 01:33N 43°33' E 007°01'0 0.0
2014-Oct-14 00:33N 43°33' E 007°01'0 0.0
2014-Oct-13 23:33N 43°33' E 007°01'0 0.0
2014-Oct-13 22:33N 43°33' E 007°01'0 0.0
2014-Oct-13 21:33N 43°33' E 007°01'0 0.0
2014-Oct-13 20:33N 43°33' E 007°01'0 0.0
2014-Oct-13 19:34N 43°33' E 007°01'0 0.0
2014-Oct-13 18:33N 43°33' E 007°01'0 0.0
2014-Oct-13 17:33N 43°33' E 007°01'0 0.0
2014-Oct-13 16:33N 43°33' E 007°01'1 1.0
2014-Oct-13 15:33N 43°32' E 007°01'6 5.8
2014-Oct-13 14:33N 43°33' E 007°09'18 3.5
2014-Oct-13 09:23N 43°45' E 007°27'  

Dump ship's entire track history